Terminal Aerodrome Forecast
Issued by NWS

Home | Current Version | Previous Version | Text Only | Print | Product List | Glossary On
Versions: 1 2 3 4 5 6 7 8 9 10 11 12 13 14
000
FTUS45 KRIW 302300
TAFCPR
TAF
KCPR 302326Z 3100/3124 VRB05KT P6SM SCT120
     FM310300 18010KT P6SM SKC
     FM311200 22012KT P6SM SKC
     FM311800 22020G30KT P6SM SCT100=

USA.gov is the U.S. government's official web portal to all federal, state and local government web resources and services.